Quincy Center, Massachusetts
Current Conditions -  °F | °C
As of 11:54 AM on Saturday 20 Dec 2014 (Local Time) from KBOS Reporting Station
Overcast Overcast  
Wind Chill: 25°   Ceiling: 2600
Heat Index: 33°   Visibility: 10mi
Dew Point: 24°   Wind: 10mph
Humidity: 70%   Direction: 360°N
Pressure: 30.27"   Gusts: NA
Location:  42.2468°N, 71.0071°W
Report Text: KBOS 201654Z 36009KT 10SM SCT021 BKN026 OVC038 01/M04 A3027 RMK AO2 SLP249 T00061044
Loading
Personal Weather Stations






























Interactive Weather Map New forecast layout! Learn more

10-Day Weather Forecast

Advertisements
Track Severe Weather on mobile